Terminal Aerodrome Forecast
Issued by NWS

Home | Current Version | Previous Version | Text Only | Print | Product List | Glossary On
Versions: 1 2 3 4 5 6 7 8 9 10 11 12 13 14 15 16
804
FTUS44 KLUB 231732
TAFCDS
TAF
KCDS 231732Z 2318/2418 35015KT P6SM FEW050 SCT100 BKN250
     FM240100 34007KT P6SM SKC=

USA.gov is the U.S. government's official web portal to all federal, state and local government web resources and services.